Airfield :







YOU CAN JOIN US ON...

 
LOGIN :

Register | Disclaimer

   EN    FR    IT 

 









Legend :    VFR   Marginal VFR   IFR   Intensive IFR   Very Intensive IFR
Visi :
Ceiling :
>= 8 km
>= 3000ft
5 to 8 km
1000 to 3000 ft
1500m to 5 km
500 to 1000 ft
800 to 1500m
200 to 500 ft
< 800m
< 200 ft
Symbols :   Thunderstorms  Fog  Heavy snow  Heavy precipitations  Wind > 20 kt







- Airport Elevation : 83 ft


KBHB - Hancock County-Bar Harbor

CURRENT METAR :
  • 181056Z AUTO 35004KT 10SM OVC048 08/06 A3029 RMK AO2 SLP259 T00780056

EXPIRED METARs :
  • 180956Z AUTO 35003KT 10SM OVC050 09/06 A3027 RMK AO2 SLP251 T00890061
  • 180856Z AUTO 35004KT 10SM OVC050 09/06 A3025 RMK AO2 SLP243 T00940061 53003

TAF KBHB
Valid from the 18 at 10:00 until the 19 at 06:00 UTC


180942Z 1810/1906 03003KT P6SM BKN050
FM181300 04007KT P6SM SKC
FM190400 00000KT P6SM SKC
No reported NOTAMs for that airfield.



MET'MAP, your aeronautical weather chart ! - Copyright ORBIFLY December 2007 - Disclaimer

ORBIFLY MET'MAP TEAM :

Programming & Development : Alexandra Zaïnal
Concept & Development : Baudouin d'Aumeries
Co-Development & Prog : Marc-Olivier Méhu
Technical & hardware support : Manuel Goepfert

Contact : metmap@orbifly.com




SOURCES & CREDITS :

   NOAA